Time;durP1;ratioP1;P1;durP2;ratioP2;P2;SDS_P1;SDS_P2;PMS_P1;PMS_P2;Temp;Humidity;BMP_temperature;BMP_pressure;BME280_temperature;BME280_humidity;BME280_pressure;Samples;Min_cycle;Max_cycle;Signal;HPM_P1;HPM_P2
2023/03/31 00:00:43;;;;;;;0.00;0.00;;;;;;;9.22;100.00;99691.47;6122367;23;20010;-88
2023/03/31 00:03:12;;;;;;;1.40;0.43;;;;;;;9.34;100.00;99712.88;6095880;23;20018;-88
2023/03/31 00:05:38;;;;;;;0.20;0.20;;;;;;;9.26;100.00;99722.59;6073369;23;20005;-88
2023/03/31 00:08:06;;;;;;;0.00;0.00;;;;;;;9.33;100.00;99732.72;6095793;23;20065;-87
2023/03/31 00:10:33;;;;;;;0.47;0.40;;;;;;;9.27;100.00;99735.22;6073207;23;20046;-88
2023/03/31 00:13:00;;;;;;;0.13;0.10;;;;;;;9.30;100.00;99736.38;6095890;23;20057;-86
2023/03/31 00:15:26;;;;;;;0.00;0.00;;;;;;;9.16;100.00;99720.91;6072862;23;20447;-87
2023/03/31 00:17:52;;;;;;;0.15;0.15;;;;;;;8.96;100.00;99689.81;6096056;23;20061;-87
2023/03/31 00:20:17;;;;;;;0.50;0.47;;;;;;;9.09;100.00;99692.63;6072760;23;20499;-88
2023/03/31 00:22:46;;;;;;;1.42;1.33;;;;;;;9.23;100.00;99717.94;6095350;23;20477;-88
2023/03/31 00:25:13;;;;;;;0.10;0.10;;;;;;;9.23;100.00;99706.88;6072590;23;20018;-88
2023/03/31 00:27:43;;;;;;;0.30;0.30;;;;;;;9.17;100.00;99707.84;6096032;23;20018;-88
2023/03/31 00:30:10;;;;;;;0.20;0.20;;;;;;;9.13;100.00;99705.16;6072577;23;20014;-88
2023/03/31 00:32:35;;;;;;;0.00;0.00;;;;;;;9.12;100.00;99702.81;6071790;23;20014;-88
2023/03/31 00:35:01;;;;;;;0.38;0.38;;;;;;;9.21;100.00;99711.28;6094152;23;20089;-88
2023/03/31 00:37:28;;;;;;;2.85;1.80;;;;;;;9.20;100.00;99704.97;6071379;23;20061;-88
2023/03/31 00:39:54;;;;;;;0.73;0.57;;;;;;;9.25;100.00;99701.69;6095880;23;20490;-88
2023/03/31 00:42:20;;;;;;;0.50;0.50;;;;;;;9.11;100.00;99685.44;6071882;23;20486;-88
2023/03/31 00:45:14;;;;;;;0.20;0.20;;;;;;;9.31;100.00;99705.47;6071918;23;20005;-88
2023/03/31 00:47:46;;;;;;;0.00;0.00;;;;;;;9.24;100.00;99693.81;6095659;23;20045;-88
2023/03/31 00:50:17;;;;;;;0.00;0.00;;;;;;;9.25;100.00;99690.63;6072385;23;20021;-88
2023/03/31 00:52:44;;;;;;;0.65;0.65;;;;;;;9.25;100.00;99679.53;6096145;23;20024;-88
2023/03/31 00:55:17;;;;;;;0.68;0.68;;;;;;;9.19;100.00;99663.91;6072488;23;20013;-88
2023/03/31 00:57:45;;;;;;;0.77;0.77;;;;;;;9.11;100.00;99652.25;6072210;23;20018;-88
2023/03/31 01:00:15;;;;;;;0.17;0.17;;;;;;;9.13;100.00;99647.06;6096342;23;20081;-88
2023/03/31 01:02:50;;;;;;;0.20;0.20;;;;;;;9.14;100.00;99648.59;6095965;23;20013;-89
2023/03/31 01:05:22;;;;;;;0.15;0.15;;;;;;;9.14;100.00;99654.13;6074248;23;20062;-88
2023/03/31 01:07:50;;;;;;;0.35;0.35;;;;;;;9.12;100.00;99662.09;6070970;23;20438;-88
2023/03/31 01:10:16;;;;;;;0.10;0.10;;;;;;;9.04;100.00;99646.91;6096382;23;20131;-88
2023/03/31 01:12:45;;;;;;;0.35;0.35;;;;;;;9.07;100.00;99650.78;6071231;23;20041;-87
2023/03/31 01:15:11;;;;;;;0.10;0.10;;;;;;;8.95;100.00;99632.91;6072023;23;20006;-88
2023/03/31 01:17:37;;;;;;;0.20;0.20;;;;;;;8.95;100.00;99655.03;6095498;23;20021;-87
2023/03/31 01:20:10;;;;;;;1.85;1.75;;;;;;;8.94;100.00;99653.47;6071890;23;20441;-88
2023/03/31 01:22:38;;;;;;;0.35;0.35;;;;;;;8.90;100.00;99650.81;6120788;23;20022;-88
2023/03/31 01:25:33;;;;;;;0.25;0.25;;;;;;;8.73;100.00;99643.00;6071419;23;20022;-88
2023/03/31 01:28:09;;;;;;;0.15;0.15;;;;;;;8.76;100.00;99661.47;6120785;23;20409;-88
2023/03/31 01:30:57;;;;;;;0.45;0.45;;;;;;;8.74;100.00;99669.41;6122495;23;20021;-88
2023/03/31 01:33:38;;;;;;;0.52;0.52;;;;;;;8.68;100.00;99662.88;6095425;23;20136;-87
2023/03/31 01:36:42;;;;;;;0.82;0.82;;;;;;;8.63;100.00;99655.09;6095430;23;20028;-88
2023/03/31 01:39:22;;;;;;;0.55;0.55;;;;;;;8.54;100.00;99641.09;6119305;23;20128;-88
2023/03/31 01:41:55;;;;;;;2.90;1.48;;;;;;;8.45;100.00;99627.13;6094940;23;20473;-88
2023/03/31 01:45:01;;;;;;;0.10;0.10;;;;;;;8.39;100.00;99640.66;6071445;23;20070;-87
2023/03/31 01:47:41;;;;;;;0.00;0.00;;;;;;;8.22;100.00;99626.03;6095762;23;20329;-88
2023/03/31 01:50:17;;;;;;;0.43;0.43;;;;;;;8.37;100.00;99643.09;6120152;23;20025;-87
2023/03/31 01:52:52;;;;;;;0.40;0.40;;;;;;;8.23;100.00;99627.59;6071038;23;20028;-88
2023/03/31 01:55:29;;;;;;;0.00;0.00;;;;;;;8.25;100.00;99638.97;6096001;23;20477;-87
2023/03/31 01:58:20;;;;;;;0.13;0.13;;;;;;;8.27;100.00;99639.34;6070614;23;20104;-88
2023/03/31 02:01:00;;;;;;;0.63;0.63;;;;;;;8.08;100.00;99625.59;6095747;23;20040;-88
2023/03/31 02:03:37;;;;;;;0.50;0.50;;;;;;;8.12;100.00;99635.34;6048052;23;20021;-88
2023/03/31 02:06:09;;;;;;;1.05;1.02;;;;;;;8.07;100.00;99635.88;6071140;23;20021;-87
2023/03/31 02:08:43;;;;;;;0.55;0.55;;;;;;;8.03;100.00;99645.44;6119466;23;20014;-88
2023/03/31 02:11:09;;;;;;;0.47;0.45;;;;;;;8.01;100.00;99645.09;6047462;23;20513;-87
2023/03/31 02:13:37;;;;;;;0.28;0.28;;;;;;;7.95;100.00;99639.31;6071451;23;20045;-88
2023/03/31 02:16:06;;;;;;;0.13;0.13;;;;;;;7.87;100.00;99627.63;6095505;23;20373;-87
2023/03/31 02:18:36;;;;;;;0.65;0.35;;;;;;;7.83;100.00;99637.97;6047787;23;20453;-88
2023/03/31 02:21:03;;;;;;;0.17;0.17;;;;;;;7.75;100.00;99617.25;6119907;23;20014;-88
2023/03/31 02:23:30;;;;;;;0.65;0.60;;;;;;;7.70;100.00;99594.88;6098486;23;20388;-87
2023/03/31 02:26:02;;;;;;;0.00;0.00;;;;;;;7.75;100.00;99613.72;6100209;23;20119;-87
2023/03/31 02:28:28;;;;;;;1.55;1.45;;;;;;;7.71;100.00;99613.00;6150894;23;20022;-88
2023/03/31 02:31:21;;;;;;;0.70;0.70;;;;;;;7.68;100.00;99611.13;6100228;23;20010;-88
2023/03/31 02:33:48;;;;;;;0.08;0.08;;;;;;;7.61;100.00;99598.22;6124432;23;20071;-87
2023/03/31 02:36:14;;;;;;;0.65;0.65;;;;;;;7.58;100.00;99576.22;6100212;23;20088;-87
2023/03/31 02:38:47;;;;;;;0.20;0.20;;;;;;;7.53;100.00;99579.47;6076019;23;20466;-87
2023/03/31 02:41:13;;;;;;;0.88;0.88;;;;;;;7.70;100.00;99603.94;6099784;23;20450;-88
2023/03/31 02:43:39;;;;;;;0.45;0.45;;;;;;;7.73;100.00;99610.59;6124242;23;20014;-88
2023/03/31 02:46:04;;;;;;;0.00;0.00;;;;;;;7.69;100.00;99615.41;6125788;23;20013;-88
2023/03/31 02:48:36;;;;;;;0.30;0.30;;;;;;;7.66;100.00;99610.75;6101803;23;20021;-88
2023/03/31 02:51:08;;;;;;;1.40;1.17;;;;;;;7.58;100.00;99614.88;6101551;23;20022;-87
2023/03/31 02:53:57;;;;;;;0.30;0.30;;;;;;;7.57;100.00;99616.84;6126059;23;20445;-88
2023/03/31 02:56:44;;;;;;;0.20;0.20;;;;;;;7.49;100.00;99616.22;6103228;23;20014;-88
2023/03/31 02:59:32;;;;;;;0.28;0.28;;;;;;;7.43;100.00;99609.66;6101616;23;20017;-88
2023/03/31 03:02:26;;;;;;;0.13;0.13;;;;;;;7.38;100.00;99612.13;6077983;23;20438;-88
2023/03/31 03:05:10;;;;;;;9.90;1.45;;;;;;;7.34;100.00;99603.16;6126141;23;20068;-87
2023/03/31 03:08:03;;;;;;;0.13;0.13;;;;;;;7.28;100.00;99596.59;6101466;23;20021;-87
2023/03/31 03:10:53;;;;;;;0.75;0.75;;;;;;;7.25;100.00;99589.13;6126456;23;20072;-88
2023/03/31 03:13:30;;;;;;;0.45;0.45;;;;;;;7.17;100.00;99585.75;6126191;23;20017;-86
2023/03/31 03:16:02;;;;;;;0.82;0.82;;;;;;;7.20;100.00;99571.09;6101333;23;20022;-86
2023/03/31 03:18:29;;;;;;;1.27;1.17;;;;;;;7.19;100.00;99594.41;6126438;23;20068;-88
2023/03/31 03:20:55;;;;;;;0.47;0.47;;;;;;;7.21;100.00;99580.94;6101081;23;20009;-88
2023/03/31 03:23:21;;;;;;;0.45;0.45;;;;;;;7.30;100.00;99577.63;6101222;23;20016;-88
2023/03/31 03:25:47;;;;;;;0.30;0.30;;;;;;;7.18;100.00;99565.25;6125741;23;20082;-87
2023/03/31 03:28:12;;;;;;;0.70;0.70;;;;;;;7.23;100.00;99580.53;6125732;23;20453;-88
2023/03/31 03:30:38;;;;;;;0.15;0.15;;;;;;;7.25;100.00;99565.09;6101822;23;20021;-87
2023/03/31 03:33:05;;;;;;;0.40;0.40;;;;;;;7.22;100.00;99552.16;6125987;23;20005;-86
2023/03/31 03:35:34;;;;;;;0.00;0.00;;;;;;;7.34;100.00;99551.50;6152877;23;20100;-88
2023/03/31 03:37:59;;;;;;;0.15;0.10;;;;;;;7.38;100.00;99566.00;6100619;23;20024;-88
2023/03/31 03:40:25;;;;;;;1.67;1.15;;;;;;;7.38;100.00;99551.44;6102132;23;20345;-88
2023/03/31 03:42:51;;;;;;;2.63;0.70;;;;;;;7.41;100.00;99551.34;6125050;23;20014;-88
2023/03/31 03:45:16;;;;;;;0.30;0.28;;;;;;;7.35;100.00;99555.84;6125752;23;20080;-85
2023/03/31 03:47:42;;;;;;;0.25;0.25;;;;;;;7.01;100.00;99520.28;6101251;23;20069;-87
2023/03/31 03:50:08;;;;;;;0.32;0.32;;;;;;;7.21;100.00;99558.88;6125881;23;20029;-88
2023/03/31 03:52:34;;;;;;;0.00;0.00;;;;;;;6.98;100.00;99532.16;6100171;23;20041;-87
2023/03/31 03:55:00;;;;;;;0.88;0.88;;;;;;;6.95;100.00;99535.78;6152075;23;20006;-87
2023/03/31 03:57:26;;;;;;;0.43;0.43;;;;;;;6.99;100.00;99547.50;6125393;23;20459;-87
2023/03/31 03:59:52;;;;;;;0.00;0.00;;;;;;;6.98;100.00;99550.69;6101162;23;20097;-87
2023/03/31 04:02:17;;;;;;;0.13;0.13;;;;;;;6.85;100.00;99535.97;6125473;23;20397;-87
2023/03/31 04:04:44;;;;;;;1.08;0.60;;;;;;;6.94;100.00;99549.97;6101592;23;20017;-87
2023/03/31 04:07:10;;;;;;;0.45;0.45;;;;;;;6.89;100.00;99542.19;6101004;23;20001;-86
2023/03/31 04:09:35;;;;;;;0.52;0.52;;;;;;;6.86;100.00;99543.06;6101817;23;20020;-88
2023/03/31 04:12:01;;;;;;;0.22;0.22;;;;;;;6.76;100.00;99521.97;6100498;23;20028;-88
2023/03/31 04:14:27;;;;;;;0.22;0.22;;;;;;;6.89;100.00;99536.69;6101329;23;20334;-88
2023/03/31 04:16:55;;;;;;;0.35;0.35;;;;;;;6.83;100.00;99528.16;6100868;23;20044;-88
2023/03/31 04:19:24;;;;;;;0.57;0.57;;;;;;;6.87;100.00;99539.09;6151903;23;20315;-86
2023/03/31 04:21:57;;;;;;;0.10;0.10;;;;;;;6.73;100.00;99522.81;6125875;23;20016;-87
2023/03/31 04:24:31;;;;;;;0.40;0.40;;;;;;;6.61;100.00;99510.44;6100519;23;20018;-87
2023/03/31 04:26:58;;;;;;;0.20;0.20;;;;;;;6.82;100.00;99548.63;6078155;23;20014;-88
2023/03/31 04:29:25;;;;;;;3.72;0.85;;;;;;;6.55;100.00;99509.41;6125821;23;20081;-88
2023/03/31 04:31:58;;;;;;;0.28;0.28;;;;;;;6.65;100.00;99515.88;6125319;23;20020;-87
2023/03/31 04:34:25;;;;;;;0.08;0.08;;;;;;;6.61;100.00;99521.47;6151736;23;20532;-86
2023/03/31 04:36:54;;;;;;;0.35;0.35;;;;;;;6.71;100.00;99547.28;6125434;23;20012;-87
2023/03/31 04:39:25;;;;;;;0.30;0.30;;;;;;;6.67;100.00;99535.56;6124337;23;20339;-87
2023/03/31 04:41:53;;;;;;;0.00;0.00;;;;;;;6.55;100.00;99512.91;6077491;23;20020;-88
2023/03/31 04:44:18;;;;;;;0.03;0.03;;;;;;;6.53;100.00;99520.84;6124510;23;20009;-88
2023/03/31 04:46:44;;;;;;;0.17;0.17;;;;;;;6.71;100.00;99530.75;6100265;23;20019;-88
2023/03/31 04:49:09;;;;;;;0.45;0.32;;;;;;;6.59;100.00;99517.59;6150541;23;20133;-87
2023/03/31 04:51:35;;;;;;;1.08;1.08;;;;;;;6.68;100.00;99532.34;6150068;23;20056;-87
2023/03/31 04:54:00;;;;;;;0.10;0.10;;;;;;;6.62;100.00;99520.28;6096756;23;20017;-87
2023/03/31 04:56:26;;;;;;;0.22;0.22;;;;;;;6.69;100.00;99522.88;6121114;23;20021;-87
2023/03/31 04:58:52;;;;;;;0.47;0.32;;;;;;;6.77;100.00;99518.03;6098032;23;20489;-88
2023/03/31 05:01:19;;;;;;;0.32;0.32;;;;;;;6.80;100.00;99525.44;6147533;23;20021;-87
2023/03/31 05:03:46;;;;;;;0.00;0.00;;;;;;;6.82;100.00;99520.28;6128053;23;20005;-88
2023/03/31 05:06:15;;;;;;;0.10;0.10;;;;;;;6.88;100.00;99524.09;6126678;23;20418;-87
2023/03/31 05:08:41;;;;;;;0.10;0.10;;;;;;;6.79;100.00;99504.59;6124503;23;20024;-87
2023/03/31 05:11:07;;;;;;;0.22;0.20;;;;;;;6.85;100.00;99505.66;6120754;23;20029;-88
2023/03/31 05:13:32;;;;;;;0.65;0.47;;;;;;;6.94;100.00;99503.88;6098418;23;20060;-87
2023/03/31 05:16:05;;;;;;;0.52;0.47;;;;;;;7.11;100.00;99521.28;6122355;23;20018;-88
2023/03/31 05:18:34;;;;;;;0.20;0.20;;;;;;;7.19;100.00;99522.69;6098058;23;20022;-88
2023/03/31 05:21:17;;;;;;;0.00;0.00;;;;;;;7.24;100.00;99513.88;6098559;23;20019;-88
2023/03/31 05:23:44;;;;;;;0.80;0.80;;;;;;;7.19;100.00;99505.34;6092300;23;20029;-88
2023/03/31 05:26:10;;;;;;;1.42;1.15;;;;;;;7.20;100.00;99491.09;6095160;23;20021;-87
2023/03/31 05:28:36;;;;;;;2.88;2.35;;;;;;;7.39;100.00;99503.31;6121237;23;20018;-88
2023/03/31 05:31:03;;;;;;;0.70;0.70;;;;;;;7.52;100.00;99501.47;6071615;23;20006;-88
2023/03/31 05:33:29;;;;;;;0.45;0.45;;;;;;;7.71;100.00;99502.59;6071593;23;20017;-88
2023/03/31 05:35:55;;;;;;;0.40;0.40;;;;;;;7.78;100.00;99496.88;6095752;23;19999;-88
2023/03/31 05:38:21;;;;;;;0.47;0.47;;;;;;;8.00;100.00;99486.13;6095006;23;20073;-89
2023/03/31 05:40:47;;;;;;;0.65;0.65;;;;;;;8.17;100.00;99490.41;6070535;23;20006;-88
2023/03/31 05:43:13;;;;;;;1.80;1.42;;;;;;;8.32;100.00;99470.28;6071095;23;20025;-88
2023/03/31 05:45:38;;;;;;;2.10;1.98;;;;;;;8.45;100.00;99455.75;6072023;23;20065;-87
2023/03/31 05:48:04;;;;;;;1.42;1.10;;;;;;;8.85;100.00;99479.09;6094709;23;20048;-88
2023/03/31 05:50:30;;;;;;;0.80;0.65;;;;;;;8.80;100.00;99430.66;6071670;23;20450;-88
2023/03/31 05:52:56;;;;;;;0.60;0.60;;;;;;;9.07;100.00;99451.59;6071005;23;20033;-89
2023/03/31 05:55:22;;;;;;;0.47;0.47;;;;;;;9.26;100.00;99451.38;6070126;23;20006;-88
2023/03/31 05:57:47;;;;;;;1.42;0.85;;;;;;;9.54;100.00;99446.19;6093333;23;20362;-86
2023/03/31 06:00:14;;;;;;;11.45;2.13;;;;;;;9.52;100.00;99412.63;6070612;23;20029;-87
2023/03/31 06:02:40;;;;;;;0.30;0.30;;;;;;;9.91;100.00;99425.94;6070243;23;20041;-89
2023/03/31 06:05:06;;;;;;;2.13;0.82;;;;;;;10.11;100.00;99422.94;6095572;23;20077;-88
2023/03/31 06:07:31;;;;;;;0.43;0.38;;;;;;;10.37;100.00;99424.38;6119343;23;20068;-88
2023/03/31 06:09:57;;;;;;;0.13;0.13;;;;;;;10.63;100.00;99428.59;6095788;23;20020;-87
2023/03/31 06:12:23;;;;;;;0.52;0.52;;;;;;;10.35;100.00;99378.94;6095727;23;20061;-88
2023/03/31 06:14:48;;;;;;;0.20;0.20;;;;;;;10.58;100.00;99433.94;6095848;23;20447;-88
2023/03/31 06:17:14;;;;;;;0.50;0.47;;;;;;;10.81;100.00;99458.44;6120061;23;20390;-88
2023/03/31 06:19:40;;;;;;;0.25;0.25;;;;;;;10.92;100.00;99444.19;6121900;23;20014;-88
2023/03/31 06:22:05;;;;;;;0.45;0.45;;;;;;;11.15;100.00;99441.69;6097287;23;20006;-88
2023/03/31 06:24:31;;;;;;;0.60;0.60;;;;;;;11.39;100.00;99446.72;6072911;23;20014;-89
2023/03/31 06:26:59;;;;;;;0.10;0.10;;;;;;;11.59;100.00;99449.91;6073182;23;20047;-88
2023/03/31 06:29:26;;;;;;;0.10;0.10;;;;;;;11.58;100.00;99437.22;6074388;23;20014;-88
2023/03/31 06:31:52;;;;;;;0.30;0.30;;;;;;;11.91;100.00;99454.97;6073438;23;20085;-87
2023/03/31 06:34:18;;;;;;;0.10;0.10;;;;;;;12.02;100.00;99460.84;6073602;23;20085;-89
2023/03/31 06:36:43;;;;;;;0.17;0.17;;;;;;;12.07;100.00;99460.22;6097854;23;20037;-88
2023/03/31 06:39:09;;;;;;;0.32;0.32;;;;;;;12.27;100.00;99459.78;6096915;23;20013;-89
2023/03/31 06:41:35;;;;;;;0.30;0.30;;;;;;;12.41;100.00;99445.28;6073396;23;20021;-89
2023/03/31 06:44:01;;;;;;;0.82;0.82;;;;;;;12.62;100.00;99460.25;6073417;23;20014;-89
2023/03/31 06:46:26;;;;;;;0.38;0.35;;;;;;;12.74;100.00;99459.31;6073998;23;20018;-89
2023/03/31 06:48:53;;;;;;;0.00;0.00;;;;;;;12.93;100.00;99444.16;6072946;23;20396;-86
2023/03/31 06:51:19;;;;;;;1.20;0.90;;;;;;;12.96;100.00;99415.38;6097574;23;20037;-87
2023/03/31 06:53:44;;;;;;;1.10;0.63;;;;;;;13.15;100.00;99434.81;6096450;23;20021;-87
2023/03/31 06:56:10;;;;;;;0.73;0.60;;;;;;;13.17;100.00;99413.63;6073465;23;20018;-87
2023/03/31 06:58:36;;;;;;;0.17;0.17;;;;;;;13.26;100.00;99399.69;6122902;23;20350;-87
2023/03/31 07:01:03;;;;;;;0.55;0.52;;;;;;;13.51;100.00;99404.03;6096941;23;20018;-87
2023/03/31 07:03:29;;;;;;;0.57;0.57;;;;;;;13.87;100.00;99414.97;6071625;23;20045;-87
2023/03/31 07:05:55;;;;;;;0.00;0.00;;;;;;;14.18;100.00;99420.19;6095093;23;20439;-88
2023/03/31 07:08:21;;;;;;;0.25;0.25;;;;;;;14.39;100.00;99421.91;6070379;23;20093;-87
2023/03/31 07:10:49;;;;;;;0.25;0.25;;;;;;;14.75;100.00;99426.41;6070950;23;20097;-87
2023/03/31 07:13:15;;;;;;;1.08;0.85;;;;;;;14.73;100.00;99422.53;6070994;23;20018;-87
2023/03/31 07:15:41;;;;;;;1.05;0.65;;;;;;;14.95;100.00;99420.16;6071176;23;20010;-87
2023/03/31 07:18:08;;;;;;;0.38;0.38;;;;;;;14.94;100.00;99408.19;6071928;23;20320;-87
2023/03/31 07:20:34;;;;;;;0.43;0.43;;;;;;;15.09;100.00;99418.56;6097991;23;20779;-87
2023/03/31 07:23:03;;;;;;;0.03;0.03;;;;;;;15.37;100.00;99423.38;6122173;23;20347;-87
2023/03/31 07:25:28;;;;;;;0.28;0.28;;;;;;;15.30;100.00;99389.47;6150799;23;20018;-87
2023/03/31 07:27:54;;;;;;;0.40;0.40;;;;;;;15.24;100.00;99385.84;6125265;23;20027;-87
2023/03/31 07:30:20;;;;;;;0.20;0.20;;;;;;;15.43;100.00;99389.94;6152665;23;20016;-87
2023/03/31 07:32:47;;;;;;;0.65;0.65;;;;;;;15.47;100.00;99378.53;6101697;23;20028;-87
2023/03/31 07:35:14;;;;;;;0.75;0.65;;;;;;;15.66;100.00;99386.22;6126404;23;20349;-87
2023/03/31 07:37:43;;;;;;;0.75;0.32;;;;;;;15.99;100.00;99396.31;6076984;23;20080;-87
2023/03/31 07:40:16;;;;;;;0.10;0.10;;;;;;;16.20;100.00;99390.22;6078315;23;20023;-87
2023/03/31 07:42:42;;;;;;;0.73;0.73;;;;;;;16.10;100.00;99360.06;6077275;23;20018;-88
2023/03/31 07:45:08;;;;;;;0.20;0.20;;;;;;;16.39;100.00;99385.09;6101642;23;20287;-87
2023/03/31 07:47:35;;;;;;;0.75;0.43;;;;;;;16.43;100.00;99368.06;6077689;23;20132;-88
2023/03/31 07:50:02;;;;;;;0.50;0.50;;;;;;;16.38;100.00;99361.16;6126549;23;20096;-88
2023/03/31 07:52:28;;;;;;;0.65;0.63;;;;;;;16.58;100.00;99358.31;6101289;23;20045;-88
2023/03/31 07:54:53;;;;;;;0.32;0.32;;;;;;;16.72;100.00;99351.84;6125589;23;20021;-88
2023/03/31 07:57:19;;;;;;;0.00;0.00;;;;;;;16.69;98.49;99322.06;6101617;23;20014;-88
2023/03/31 07:59:45;;;;;;;0.00;0.00;;;;;;;16.82;99.22;99349.66;6152169;23;20005;-87
2023/03/31 08:02:12;;;;;;;0.03;0.03;;;;;;;16.85;100.00;99333.88;6152241;23;20460;-88
2023/03/31 08:04:40;;;;;;;0.00;0.00;;;;;;;17.03;94.35;99320.25;6077556;23;20009;-87
2023/03/31 08:07:10;;;;;;;0.38;0.38;;;;;;;17.21;93.68;99333.91;6101855;23;20017;-88
2023/03/31 08:09:36;;;;;;;0.10;0.10;;;;;;;17.17;92.79;99329.78;6077209;23;20022;-88
2023/03/31 08:12:02;;;;;;;0.10;0.10;;;;;;;17.24;95.40;99334.94;6101150;23;20376;-88
2023/03/31 08:14:34;;;;;;;0.20;0.20;;;;;;;17.20;92.56;99337.97;6077381;23;20010;-88
2023/03/31 08:17:00;;;;;;;0.05;0.05;;;;;;;17.21;92.03;99335.94;6077427;23;20021;-88
2023/03/31 08:19:26;;;;;;;0.22;0.22;;;;;;;17.11;93.20;99320.56;6077371;23;20012;-87
2023/03/31 08:21:52;;;;;;;0.90;0.88;;;;;;;17.50;92.61;99346.84;6101406;23;20037;-88
2023/03/31 08:24:19;;;;;;;0.30;0.30;;;;;;;17.58;92.73;99330.34;6076662;23;20013;-87
2023/03/31 08:26:45;;;;;;;0.57;0.57;;;;;;;17.78;89.60;99344.19;6100777;23;20010;-88
2023/03/31 08:29:10;;;;;;;10.35;0.70;;;;;;;18.04;89.47;99346.84;6076910;23;20048;-88
2023/03/31 08:31:36;;;;;;;0.32;0.25;;;;;;;17.94;85.72;99337.13;6077490;23;20040;-87
2023/03/31 08:34:03;;;;;;;0.75;0.38;;;;;;;17.79;81.65;99317.69;6077299;23;20006;-88
2023/03/31 08:36:29;;;;;;;0.13;0.13;;;;;;;17.53;82.52;99323.41;6125724;23;20017;-88
2023/03/31 08:38:54;;;;;;;0.35;0.35;;;;;;;16.86;89.83;99280.19;6124696;23;20016;-87
2023/03/31 08:41:49;;;;;;;0.17;0.17;;;;;;;17.21;89.95;99316.31;6151781;23;20009;-88
2023/03/31 08:44:32;;;;;;;0.52;0.52;;;;;;;17.16;89.07;99301.00;6121802;23;20018;-88
2023/03/31 08:46:59;;;;;;;0.17;0.17;;;;;;;17.01;87.23;99288.41;6101362;23;20024;-88
2023/03/31 08:49:26;;;;;;;0.35;0.35;;;;;;;16.83;87.72;99271.97;6101343;23;20016;-87
2023/03/31 08:52:01;;;;;;;0.20;0.20;;;;;;;16.78;89.08;99293.84;6125220;23;20018;-88
2023/03/31 08:54:33;;;;;;;0.50;0.50;;;;;;;16.48;92.43;99270.16;6100651;23;20017;-87
2023/03/31 08:57:00;;;;;;;0.90;0.70;;;;;;;16.54;95.54;99276.56;6101257;23;20016;-88
2023/03/31 08:59:31;;;;;;;0.35;0.20;;;;;;;16.53;96.10;99280.66;6076802;23;20005;-88
2023/03/31 09:02:09;;;;;;;1.33;0.95;;;;;;;16.53;96.31;99261.03;6076483;23;20104;-87
2023/03/31 09:04:50;;;;;;;0.20;0.20;;;;;;;16.96;92.62;99275.13;6125430;23;20441;-87
2023/03/31 09:07:34;;;;;;;1.48;0.40;;;;;;;16.71;88.65;99243.91;6077126;23;20099;-88
2023/03/31 09:10:16;;;;;;;0.10;0.10;;;;;;;17.01;93.17;99260.41;6100751;23;20020;-88
2023/03/31 09:13:08;;;;;;;0.17;0.17;;;;;;;16.87;90.83;99227.69;6100609;23;20029;-87
2023/03/31 09:15:52;;;;;;;0.32;0.32;;;;;;;16.98;89.00;99258.59;6100874;23;20545;-88
2023/03/31 09:18:39;;;;;;;0.13;0.13;;;;;;;16.95;93.52;99260.34;6151705;23;20059;-88
2023/03/31 09:21:26;;;;;;;0.75;0.25;;;;;;;17.15;89.56;99245.44;6151301;23;20017;-87
2023/03/31 09:24:19;;;;;;;1.90;0.40;;;;;;;17.00;87.58;99191.63;6099842;23;20029;-88
2023/03/31 09:26:52;;;;;;;0.00;0.00;;;;;;;17.59;89.16;99240.06;6100477;23;20017;-89
2023/03/31 09:30:04;;;;;;;0.57;0.57;;;;;;;17.93;85.03;99231.78;6125051;23;20013;-88
2023/03/31 09:32:31;;;;;;;0.63;0.52;;;;;;;18.05;82.37;99194.81;6124893;23;20389;-88
2023/03/31 09:35:15;;;;;;;0.10;0.10;;;;;;;18.35;81.29;99217.56;6100144;23;20037;-88
2023/03/31 09:37:41;;;;;;;0.63;0.63;;;;;;;18.24;79.04;99180.28;6125036;23;20024;-88
2023/03/31 09:40:12;;;;;;;0.20;0.20;;;;;;;18.49;77.38;99194.06;6151165;23;20438;-88
2023/03/31 09:42:38;;;;;;;1.08;0.98;;;;;;;18.76;77.96;99209.41;6100652;23;20027;-89
2023/03/31 09:45:04;;;;;;;0.47;0.47;;;;;;;18.80;78.70;99178.22;6100789;23;20358;-89
2023/03/31 09:47:41;;;;;;;1.27;0.70;;;;;;;18.99;75.84;99196.06;6077269;23;20049;-88
2023/03/31 09:50:08;;;;;;;0.63;0.55;;;;;;;18.85;73.55;99185.84;6076629;23;20546;-88
2023/03/31 09:52:36;;;;;;;0.30;0.30;;;;;;;18.55;74.75;99188.47;6076138;23;20009;-88
2023/03/31 09:55:08;;;;;;;0.00;0.00;;;;;;;18.29;78.42;99163.44;6151602;23;20434;-88
2023/03/31 09:57:38;;;;;;;0.32;0.32;;;;;;;18.32;78.73;99145.56;6102548;23;20009;-88
2023/03/31 10:00:15;;;;;;;2.72;0.93;;;;;;;18.56;79.57;99154.25;6102278;23;20010;-88
2023/03/31 10:02:47;;;;;;;0.47;0.35;;;;;;;18.83;75.17;99166.72;6078601;23;20017;-87
2023/03/31 10:05:28;;;;;;;0.20;0.20;;;;;;;18.62;72.59;99160.63;6103034;23;20128;-88
2023/03/31 10:08:15;;;;;;;0.20;0.10;;;;;;;18.81;76.80;99157.25;6102069;23;20021;-87
2023/03/31 10:10:48;;;;;;;0.63;0.63;;;;;;;19.11;68.79;99158.19;6102741;23;20017;-89
2023/03/31 10:13:34;;;;;;;0.03;0.03;;;;;;;19.36;68.42;99139.44;6126899;23;20092;-87
2023/03/31 10:16:07;;;;;;;0.70;0.70;;;;;;;19.37;66.99;99136.09;6102201;23;20020;-88
2023/03/31 10:18:38;;;;;;;1.52;1.42;;;;;;;19.55;67.90;99124.28;6103284;23;20418;-88
2023/03/31 10:21:06;;;;;;;0.50;0.40;;;;;;;19.79;67.61;99128.47;6078374;23;20028;-87
2023/03/31 10:23:34;;;;;;;0.45;0.30;;;;;;;19.71;63.82;99093.72;6101986;23;20021;-87
2023/03/31 10:26:01;;;;;;;0.98;0.98;;;;;;;19.95;62.30;99102.25;6126356;23;20438;-88
2023/03/31 10:28:30;;;;;;;0.20;0.20;;;;;;;19.96;63.57;99089.72;6102405;23;20104;-88
2023/03/31 10:31:00;;;;;;;1.33;1.05;;;;;;;20.08;61.45;99093.94;6126537;23;20022;-87
2023/03/31 10:33:27;;;;;;;13.70;1.75;;;;;;;19.73;63.79;99083.50;6126892;23;20014;-88
2023/03/31 10:35:57;;;;;;;0.75;0.75;;;;;;;19.52;64.46;99083.13;6078263;23;20024;-88
2023/03/31 10:38:26;;;;;;;0.13;0.13;;;;;;;19.46;65.07;99070.38;6101896;23;20018;-87
2023/03/31 10:40:58;;;;;;;0.32;0.32;;;;;;;19.42;67.43;99070.66;6102111;23;20405;-88
2023/03/31 10:43:29;;;;;;;0.00;0.00;;;;;;;19.40;65.87;99044.31;6078684;23;20651;-89
2023/03/31 10:45:59;;;;;;;0.28;0.28;;;;;;;19.59;61.37;99041.66;6126905;23;20009;-87
2023/03/31 10:48:29;;;;;;;0.30;0.30;;;;;;;19.36;62.73;99050.22;6102610;23;20022;-88
2023/03/31 10:51:19;;;;;;;0.43;0.43;;;;;;;19.23;66.25;99043.66;6125548;23;20041;-88
2023/03/31 10:53:50;;;;;;;0.40;0.40;;;;;;;18.93;66.79;99040.72;6125265;23;20410;-89
2023/03/31 10:56:22;;;;;;;0.38;0.38;;;;;;;19.17;68.82;99060.53;6100501;23;20013;-88
2023/03/31 10:59:09;;;;;;;0.10;0.10;;;;;;;19.69;66.38;99040.03;6101756;23;20026;-88
2023/03/31 11:01:53;;;;;;;0.38;0.35;;;;;;;20.01;60.41;99046.69;6078895;23;20021;-88
2023/03/31 11:04:42;;;;;;;0.50;0.50;;;;;;;19.90;58.86;99047.53;6102232;23;20118;-88
2023/03/31 11:07:19;;;;;;;9.43;0.60;;;;;;;19.80;57.87;99054.03;6101455;23;20044;-88
2023/03/31 11:09:54;;;;;;;0.03;0.03;;;;;;;19.63;60.15;99047.75;6102101;23;20445;-87
2023/03/31 11:12:38;;;;;;;0.98;0.50;;;;;;;19.48;61.62;99028.44;6101674;23;20050;-88
2023/03/31 11:15:07;;;;;;;0.65;0.60;;;;;;;19.03;62.32;99030.72;6102067;23;20467;-87
2023/03/31 11:17:53;;;;;;;0.30;0.30;;;;;;;19.03;65.32;99036.34;6126075;23;20125;-87
2023/03/31 11:20:34;;;;;;;0.22;0.22;;;;;;;18.92;66.86;99040.00;6076674;23;20075;-87
2023/03/31 11:23:20;;;;;;;0.75;0.43;;;;;;;18.67;63.46;99023.50;6099914;23;20327;-88
2023/03/31 11:25:54;;;;;;;0.55;0.30;;;;;;;18.46;64.73;99020.97;6099992;23;20017;-88
2023/03/31 11:28:23;;;;;;;1.15;0.57;;;;;;;18.28;66.59;99015.91;6100858;23;20017;-87
2023/03/31 11:31:05;;;;;;;0.17;0.17;;;;;;;18.31;68.43;98995.25;6112960;23;20017;-89
2023/03/31 11:34:09;;;;;;;0.98;0.40;;;;;;;18.87;66.41;98981.00;6125037;23;20404;-88
2023/03/31 11:36:57;;;;;;;0.30;0.30;;;;;;;19.22;63.55;98986.66;6109629;23;20029;-88
2023/03/31 11:39:40;;;;;;;0.57;0.52;;;;;;;19.38;60.03;98970.94;6099822;23;20009;-87
2023/03/31 11:42:15;;;;;;;0.60;0.60;;;;;;;19.33;61.17;98966.88;6100688;23;20087;-88
2023/03/31 11:44:45;;;;;;;0.30;0.30;;;;;;;19.53;63.08;98986.19;6101255;23;20331;-87
2023/03/31 11:47:18;;;;;;;5.07;1.65;;;;;;;19.62;61.11;98959.00;6101056;23;20517;-88
2023/03/31 11:50:08;;;;;;;0.13;0.13;;;;;;;19.97;58.26;98953.31;6123675;23;20017;-87